[ / / / / / / / / / / / / / ] [ dir / random / cuteboys / cyber / fast / femdom / kind / komica / sapphic / tech ]

/s/ - Sexy Beautiful Women

The fairer sex
Learn more about the EARN IT Act, the latest attempt to gut Section 230
/fringe/ has been migrated.
Name
Email
Subject
Comment *
File
Password (Randomized for file and post deletion; you may also set your own.)
Archive
* = required field[▶ Show post options & limits]
Confused? See the FAQ.
Embed
(replaces files and can be used instead)
Voice recorder Show voice recorder

(the Stop button will be clickable 5 seconds after you press Record)
Options

Allowed file types:jpg, jpeg, gif, png, webm, mp4, swf
Max filesize is 16 MB.
Max image dimensions are 15000 x 15000.
You may upload 5 per post.


WELCOME BACK

File: 1412619909383.jpg (885.99 KB, 2048x1149, 2048:1149, w MET-ART_AF_812_0062 (2).jpg)

 No.1170[Last 50 Posts]

don't know why its hot, but it is
____________________________
Disclaimer: this post and the subject matter and contents thereof - text, media, or otherwise - do not necessarily reflect the views of the 8kun administration.

 No.1171

File: 1412620161003.jpg (64.68 KB, 450x671, 450:671, 1412492307907.jpg)

true dat
Disclaimer: this post and the subject matter and contents thereof - text, media, or otherwise - do not necessarily reflect the views of the 8kun administration.

 No.1172

File: 1412620234013-0.jpg (906.29 KB, 2048x1151, 2048:1151, w MET-ART_AF_705_0044.jpg)

File: 1412620234013-1.jpg (672.18 KB, 2048x1151, 2048:1151, w MET-ART_AF_340_0133.jpg)

File: 1412620234013-2.jpg (1.99 MB, 4368x2912, 3:2, 0-Elle B & Natasha P couch….jpg)

File: 1412620234013-3.jpg (274.93 KB, 1920x1200, 8:5, 0-Sofi A & ---MET-ART_sg_4….jpg)

Disclaimer: this post and the subject matter and contents thereof - text, media, or otherwise - do not necessarily reflect the views of the 8kun administration.

 No.1173

File: 1412620455263-0.jpg (742.84 KB, 2000x1301, 2000:1301, 0-Janet-A--Vika-G Unio (67….jpg)

File: 1412620455263-1.jpg (209.81 KB, 2000x1330, 200:133, 0-Ulricha & ---.jpg)

File: 1412620455263-2.jpg (555.65 KB, 2560x1600, 8:5, 0-yurizan_and_austin-29957….jpg)

File: 1412620455263-3.jpg (877.78 KB, 1920x1200, 8:5, 002.jpg)

File: 1412620455263-4.jpg (537.27 KB, 1186x1733, 1186:1733, 301.jpg)

Disclaimer: this post and the subject matter and contents thereof - text, media, or otherwise - do not necessarily reflect the views of the 8kun administration.

 No.1174

File: 1412620776818-0.jpg (1.87 MB, 3872x2592, 121:81, 005.jpg)

File: 1412620776818-1.jpg (348.53 KB, 2560x1600, 8:5, 008.jpg)

File: 1412620776818-2.jpg (351.1 KB, 1920x1200, 8:5, 010.jpg)

File: 1412620776818-3.jpg (1.16 MB, 4288x2848, 134:89, 201a.jpg)

Disclaimer: this post and the subject matter and contents thereof - text, media, or otherwise - do not necessarily reflect the views of the 8kun administration.

 No.1175

File: 1412621001254-0.jpg (170.31 KB, 800x1200, 2:3, 701.jpg)

File: 1412621001254-1.jpg (241.86 KB, 1680x1050, 8:5, 705.jpg)

File: 1412621001254-2.jpg (466.83 KB, 1280x1875, 256:375, kiss002.jpg)

File: 1412621001254-3.jpg (2.71 MB, 5616x3158, 2808:1579, 0-kiss 001.jpg)

Disclaimer: this post and the subject matter and contents thereof - text, media, or otherwise - do not necessarily reflect the views of the 8kun administration.

 No.1176

File: 1412621405164-0.jpg (1.58 MB, 3008x1691, 3008:1691, 0-beach 301.jpg)

File: 1412621405164-1.jpg (1021.17 KB, 3008x1691, 3008:1691, 0-beach 406.jpg)

File: 1412621405164-2.jpg (1.25 MB, 3008x1690, 1504:845, 0-beach 410.jpg)

i don't know why that photo #701 got turned sideways. i downloaded it vertial
Disclaimer: this post and the subject matter and contents thereof - text, media, or otherwise - do not necessarily reflect the views of the 8kun administration.

 No.1177

File: 1412621677261-0.jpg (929.74 KB, 2150x3000, 43:60, beach 003.jpg)

File: 1412621677261-1.jpg (293.13 KB, 1800x1200, 3:2, bed 002.jpg)

File: 1412621677261-2.jpg (966.04 KB, 1920x1277, 1920:1277, bed 004.jpg)

File: 1412621677261-3.jpg (1.57 MB, 1383x1584, 461:528, bed 005.jpg)

Disclaimer: this post and the subject matter and contents thereof - text, media, or otherwise - do not necessarily reflect the views of the 8kun administration.

 No.1179

File: 1412621875843-0.jpg (250.86 KB, 1920x1200, 8:5, bed 007.jpg)

File: 1412621875843-1.jpg (457.57 KB, 2048x1361, 2048:1361, bed 008.jpg)

File: 1412621875843-2.jpg (219.69 KB, 1680x1050, 8:5, bed 013.jpg)

File: 1412621875843-3.jpg (406.75 KB, 1920x1200, 8:5, bed 014.jpg)

File: 1412621875843-4.jpg (436.14 KB, 2048x1361, 2048:1361, bed 015a.jpg)

Disclaimer: this post and the subject matter and contents thereof - text, media, or otherwise - do not necessarily reflect the views of the 8kun administration.

 No.1180

File: 1412622158982-0.jpg (751.65 KB, 1216x1766, 608:883, car 001.jpg)

File: 1412622158982-1.jpg (684.93 KB, 2560x1600, 8:5, chair blond001.jpg)

File: 1412622158982-2.jpg (709.76 KB, 2048x1362, 1024:681, chair202a.jpg)

File: 1412622158982-3.jpg (497.62 KB, 1920x1200, 8:5, couch 002.jpg)

File: 1412622158982-4.jpg (598.98 KB, 2048x1363, 2048:1363, floor002a.jpg)

Disclaimer: this post and the subject matter and contents thereof - text, media, or otherwise - do not necessarily reflect the views of the 8kun administration.

 No.1181

File: 1412622344962-0.jpg (2.3 MB, 4288x2602, 2144:1301, couch 201a.jpg)

File: 1412622344962-1.jpg (1.09 MB, 2667x3873, 889:1291, hose003.jpg)

Disclaimer: this post and the subject matter and contents thereof - text, media, or otherwise - do not necessarily reflect the views of the 8kun administration.

 No.1182

File: 1412622646687-0.jpg (285.28 KB, 1216x1772, 304:443, kiss003.jpg)

File: 1412622646687-1.jpg (1.04 MB, 2400x1350, 16:9, kiss005.jpg)

File: 1412622646687-2.jpg (618.53 KB, 1333x2000, 1333:2000, kiss112.jpg)

File: 1412622646687-3.jpg (898.88 KB, 3872x2592, 121:81, lace301.jpg)

File: 1412622646687-4.jpg (341.16 KB, 2048x1339, 2048:1339, outside rain 009.jpg)

Disclaimer: this post and the subject matter and contents thereof - text, media, or otherwise - do not necessarily reflect the views of the 8kun administration.

 No.1183

File: 1412622939014-0.jpg (874.07 KB, 2048x1360, 128:85, outside003a.jpg)

File: 1412622939014-1.jpg (1.25 MB, 1600x1200, 4:3, outside006.jpg)

File: 1412622939014-2.jpg (544.21 KB, 2560x1600, 8:5, outside303.jpg)

File: 1412622939014-3.jpg (154.27 KB, 800x1204, 200:301, pool206.jpg)

File: 1412622939014-4.jpg (509.34 KB, 2000x1229, 2000:1229, red pier 999.jpg)

Disclaimer: this post and the subject matter and contents thereof - text, media, or otherwise - do not necessarily reflect the views of the 8kun administration.

 No.1184

File: 1412623139149-0.jpg (1.44 MB, 4000x2667, 4000:2667, snow 001.jpg)

File: 1412623139149-1.jpg (1.64 MB, 4288x2848, 134:89, socks 301.jpg)

File: 1412623139149-2.jpg (1.16 MB, 4288x2848, 134:89, socks 302.jpg)

Disclaimer: this post and the subject matter and contents thereof - text, media, or otherwise - do not necessarily reflect the views of the 8kun administration.

 No.1185

File: 1412623393483-0.jpg (145.06 KB, 1920x1200, 8:5, studio 301.jpg)

File: 1412623393483-1.jpg (445.91 KB, 1803x1254, 601:418, tit 003.jpg)

File: 1412623393483-2.jpg (163.92 KB, 1066x1600, 533:800, tit 004.jpg)

File: 1412623393483-3.jpg (151.99 KB, 1680x1050, 8:5, tit 006.jpg)

File: 1412623393483-4.jpg (1.63 MB, 5616x3442, 2808:1721, tit 202a.jpg)

Disclaimer: this post and the subject matter and contents thereof - text, media, or otherwise - do not necessarily reflect the views of the 8kun administration.

 No.1186

File: 1412623624430-0.jpg (819.44 KB, 1280x1761, 1280:1761, trio socks 001.jpg)

File: 1412623624430-1.jpg (634.85 KB, 1360x2048, 85:128, trio outside 001.jpg)

File: 1412623624430-2.jpg (1016.88 KB, 1680x1050, 8:5, wallpaper003-.jpg)

File: 1412623624430-3.jpg (596.07 KB, 1824x1177, 1824:1177, window 002.jpg)

Disclaimer: this post and the subject matter and contents thereof - text, media, or otherwise - do not necessarily reflect the views of the 8kun administration.

 No.1476

File: 1412955906381-0.jpg (605.06 KB, 2496x1664, 3:2, MET-ART_mp_8_0057.jpg)

File: 1412955906381-1.jpg (358.53 KB, 1664x2496, 2:3, MET-ART_mp_8_0121.jpg)

File: 1412955906381-2.jpg (408.56 KB, 1664x2496, 2:3, MET-ART_mp_12_0061.jpg)

File: 1412955906381-3.jpg (368.39 KB, 2496x1664, 3:2, MET-ART_mp_12_0095.jpg)

File: 1412955906381-4.jpg (1.87 MB, 2912x4368, 2:3, MET-ART_mp_41_0075.jpg)

Disclaimer: this post and the subject matter and contents thereof - text, media, or otherwise - do not necessarily reflect the views of the 8kun administration.

 No.1477

File: 1412956508085-0.jpg (1.83 MB, 2912x4368, 2:3, MET-ART_mp_41_0174.jpg)

File: 1412956508085-1.jpg (1.39 MB, 4368x2912, 3:2, MET-ART_mp_46_0057.jpg)

File: 1412956508085-2.jpg (1.53 MB, 2912x4368, 2:3, MET-ART_mp_46_0183.jpg)

File: 1412956508085-3.jpg (479.09 KB, 2496x1664, 3:2, MET-ART_mp_08315_0164 Ekat….jpg)

Disclaimer: this post and the subject matter and contents thereof - text, media, or otherwise - do not necessarily reflect the views of the 8kun administration.

 No.1541

File: 1413069486392-0.jpg (92.84 KB, 683x1024, 683:1024, 14i.jpg)

File: 1413069486392-1.jpg (126.07 KB, 683x1024, 683:1024, 15.jpg)

File: 1413069486392-2.jpg (2.14 MB, 2844x4237, 2844:4237, 1398792655042.jpg)

File: 1413069486392-3.jpg (367.31 KB, 1309x1284, 1309:1284, 1398653462909.jpg)

File: 1413069486392-4.jpg (511.18 KB, 2048x1365, 2048:1365, 1403369326967.jpg)

Disclaimer: this post and the subject matter and contents thereof - text, media, or otherwise - do not necessarily reflect the views of the 8kun administration.

 No.1894

File: 1413751138808-0.jpg (218.11 KB, 1295x2000, 259:400, LubaAndInnaInChair_2003-11….jpg)

File: 1413751138808-1.jpg (471.43 KB, 2000x1303, 2000:1303, LubaAndKattiEndlessSummerP….jpg)

File: 1413751138808-2.jpg (500.82 KB, 2082x3000, 347:500, LubaAndMarketaIntimate_092….jpg)

File: 1413751138808-3.jpg (190.87 KB, 2000x1303, 2000:1303, 025.jpg)

File: 1413751138808-4.jpg (1.12 MB, 1485x2000, 297:400, outside301.jpg)

Disclaimer: this post and the subject matter and contents thereof - text, media, or otherwise - do not necessarily reflect the views of the 8kun administration.

 No.2095

File: 1414340738471-0.jpg (636.2 KB, 1680x1050, 8:5, duo bath202 McNude.jpg)

File: 1414340738471-1.jpg (270.02 KB, 1329x2000, 1329:2000, duo bath205.jpg)

File: 1414340738471-2.jpg (177.05 KB, 961x1380, 961:1380, duo lace102.jpg)

File: 1414340738471-3.jpg (174.51 KB, 833x1250, 833:1250, duo studio007.jpg)

File: 1414340738471-4.jpg (203.51 KB, 1920x1080, 16:9, duo umbrella 001w.jpg)

Disclaimer: this post and the subject matter and contents thereof - text, media, or otherwise - do not necessarily reflect the views of the 8kun administration.

 No.2243

File: 1414680584519-0.jpg (1 MB, 4368x2912, 3:2, antea_danae_s03_0006_l.jpg)

File: 1414680584519-1.jpg (1.63 MB, 4368x2912, 3:2, antea_avia_s01_0013_l.jpg)

File: 1414680584519-2.jpg (1.82 MB, 2912x4368, 2:3, antea_demi_s01_0049_l.jpg)

File: 1414680584519-3.jpg (1.49 MB, 4368x2912, 3:2, antea_iveta_s01_0002_l.jpg)

Disclaimer: this post and the subject matter and contents thereof - text, media, or otherwise - do not necessarily reflect the views of the 8kun administration.

 No.2271

File: 1414855341497-0.jpg (447.18 KB, 1424x2081, 1424:2081, 0-Anita & Marta outside005.jpg)

File: 1414855341497-1.jpg (236.54 KB, 797x1200, 797:1200, 0-Antea & Selene201.jpg)

File: 1414855341497-2.jpg (537.27 KB, 1186x1733, 1186:1733, 301.jpg)

File: 1414855341497-3.jpg (631.12 KB, 3000x1875, 8:5, bed 202a.jpg)

Disclaimer: this post and the subject matter and contents thereof - text, media, or otherwise - do not necessarily reflect the views of the 8kun administration.

 No.2317

File: 1415125823530-0.jpg (2.46 MB, 3744x5616, 2:3, MetArt_Suonanao_Nastya-K--….jpg)

File: 1415125823530-1.jpg (315.05 KB, 1365x2048, 1365:2048, MetArt_Tessera_Nastya-K--S….jpg)

Disclaimer: this post and the subject matter and contents thereof - text, media, or otherwise - do not necessarily reflect the views of the 8kun administration.

 No.2318

File: 1415125993335-0.jpg (3.47 MB, 3744x5616, 2:3, SexArt_Clarte_Nastya-K--Su….jpg)

Disclaimer: this post and the subject matter and contents thereof - text, media, or otherwise - do not necessarily reflect the views of the 8kun administration.

 No.2319

File: 1415126113509-0.jpg (3.49 MB, 3744x5616, 2:3, SexArt_Clarte_Nastya-K--Su….jpg)

Disclaimer: this post and the subject matter and contents thereof - text, media, or otherwise - do not necessarily reflect the views of the 8kun administration.

 No.2320

File: 1415126390146-0.jpg (2.7 MB, 3744x5616, 2:3, SexArt_Clarte_Nastya-K--Su….jpg)

File: 1415126390146-1.jpg (1.99 MB, 3744x5616, 2:3, SexArt_Ervare_Nastya-K--Su….jpg)

Disclaimer: this post and the subject matter and contents thereof - text, media, or otherwise - do not necessarily reflect the views of the 8kun administration.

 No.2321

File: 1415126621418-0.jpg (1.48 MB, 5616x3744, 3:2, SexArt_Ervare_Nastya-K--Su….jpg)

File: 1415126621418-1.jpg (1.43 MB, 5616x3744, 3:2, SexArt_Ervare_Nastya-K--Su….jpg)

File: 1415126621418-2.jpg (1.94 MB, 3744x5616, 2:3, SexArt_Ervare_Nastya-K--Su….jpg)

Disclaimer: this post and the subject matter and contents thereof - text, media, or otherwise - do not necessarily reflect the views of the 8kun administration.

 No.2322

File: 1415126747737-0.jpg (3.77 MB, 5616x3744, 3:2, SexArt_Horizon_Nastya-K--S….jpg)

Disclaimer: this post and the subject matter and contents thereof - text, media, or otherwise - do not necessarily reflect the views of the 8kun administration.

 No.2323

File: 1415126993854-0.jpg (4.61 MB, 5616x3744, 3:2, SexArt_Horizon_Nastya-K--S….jpg)

Disclaimer: this post and the subject matter and contents thereof - text, media, or otherwise - do not necessarily reflect the views of the 8kun administration.

 No.2324

File: 1415127188186-0.jpg (3.54 MB, 5616x3744, 3:2, SexArt_Horizon_Nastya-K--S….jpg)

Disclaimer: this post and the subject matter and contents thereof - text, media, or otherwise - do not necessarily reflect the views of the 8kun administration.

 No.2325

File: 1415127559110-0.jpg (3.7 MB, 3744x5616, 2:3, SexArt_Horizon_Nastya-K--S….jpg)

Disclaimer: this post and the subject matter and contents thereof - text, media, or otherwise - do not necessarily reflect the views of the 8kun administration.

 No.2326

File: 1415128476941.jpg (3.12 MB, 3744x5616, 2:3, SexArt_Teneur_Nastya-K--Su….jpg)

Disclaimer: this post and the subject matter and contents thereof - text, media, or otherwise - do not necessarily reflect the views of the 8kun administration.

 No.2327

File: 1415128690232.jpg (5.49 MB, 5760x3239, 5760:3239, SexArt_Make-Me-Happy_Loren….jpg)

Disclaimer: this post and the subject matter and contents thereof - text, media, or otherwise - do not necessarily reflect the views of the 8kun administration.

 No.2328

File: 1415128808316.jpg (3.75 MB, 5760x3239, 5760:3239, SexArt_Make-Me-Happy_Loren….jpg)

Disclaimer: this post and the subject matter and contents thereof - text, media, or otherwise - do not necessarily reflect the views of the 8kun administration.

 No.2329

File: 1415129413511.jpg (5.51 MB, 5760x3239, 5760:3239, SexArt_Make-Me-Happy_Loren….jpg)

Disclaimer: this post and the subject matter and contents thereof - text, media, or otherwise - do not necessarily reflect the views of the 8kun administration.

 No.2330

File: 1415130378085.jpg (3.26 MB, 4000x2249, 4000:2249, SexArt_Make-Me-Happy_Loren….jpg)

Disclaimer: this post and the subject matter and contents thereof - text, media, or otherwise - do not necessarily reflect the views of the 8kun administration.

 No.2354

File: 1415248582100-0.jpg (171.43 KB, 800x1200, 2:3, elle-alexandra-02.jpg)

File: 1415248582100-1.jpg (187.53 KB, 800x1200, 2:3, elle-alexandra-03.jpg)

File: 1415248582100-2.jpg (156.29 KB, 800x1200, 2:3, elle-alexandra-17.jpg)

File: 1415248582100-3.jpg (158.19 KB, 1200x800, 3:2, elle-alexandra-18.jpg)

File: 1415248582100-4.jpg (162.69 KB, 800x1200, 2:3, elle-alexandra-20.jpg)

Disclaimer: this post and the subject matter and contents thereof - text, media, or otherwise - do not necessarily reflect the views of the 8kun administration.

 No.2403

File: 1415504485929.jpg (4.98 MB, 5616x3158, 2808:1579, SexArt_Baiser_Nastya-K--Va….jpg)

Disclaimer: this post and the subject matter and contents thereof - text, media, or otherwise - do not necessarily reflect the views of the 8kun administration.

 No.2404

File: 1415504689396.jpg (5.22 MB, 5616x3158, 2808:1579, SexArt_Baiser_Nastya-K--Va….jpg)

Disclaimer: this post and the subject matter and contents thereof - text, media, or otherwise - do not necessarily reflect the views of the 8kun administration.

 No.2405

File: 1415504920820.jpg (5.42 MB, 5616x3158, 2808:1579, SexArt_Ervare_Nastya-K--Su….jpg)

Disclaimer: this post and the subject matter and contents thereof - text, media, or otherwise - do not necessarily reflect the views of the 8kun administration.

 No.2406

File: 1415505163688.jpg (4.35 MB, 5616x3158, 2808:1579, SexArt_Ervare_Nastya-K--Su….jpg)

Disclaimer: this post and the subject matter and contents thereof - text, media, or otherwise - do not necessarily reflect the views of the 8kun administration.

 No.2407

File: 1415505399241.jpg (6.78 MB, 5616x3158, 2808:1579, SexArt_Horizon_Nastya-K--S….jpg)

Disclaimer: this post and the subject matter and contents thereof - text, media, or otherwise - do not necessarily reflect the views of the 8kun administration.

 No.2902

File: 1419381466703-0.jpg (3.05 MB, 6048x4032, 3:2, MetArt_Sevas_Dana-D--Joann….jpg)

File: 1419381466703-1.jpg (241.3 KB, 2048x1365, 2048:1365, MetArt_Saccan_Beatrice-C--….jpg)

File: 1419381466703-2.jpg (1.57 MB, 4288x2848, 134:89, MET-ART_sg_134_0105.jpg)

Disclaimer: this post and the subject matter and contents thereof - text, media, or otherwise - do not necessarily reflect the views of the 8kun administration.

 No.4254

File: 1426612754193-0.jpg (57.07 KB, 1680x1050, 8:5, 001.jpg)

File: 1426612754193-1.jpg (1.84 MB, 2000x1275, 80:51, beach 001.jpg)

File: 1426612754193-2.jpg (351.1 KB, 1920x1200, 8:5, 010.jpg)

File: 1426612754193-3.jpg (170.31 KB, 800x1200, 2:3, 701.jpg)

Disclaimer: this post and the subject matter and contents thereof - text, media, or otherwise - do not necessarily reflect the views of the 8kun administration.

 No.5905

File: 1437430817613.gif (1.44 MB, 250x180, 25:18, tumblr_mmkqc5suxD1s2fkkto1….gif)

>>1177

>girl sitting on another girl's boobs

I... want to know how it feels.

Disclaimer: this post and the subject matter and contents thereof - text, media, or otherwise - do not necessarily reflect the views of the 8kun administration.

 No.6071

>>5905

>grinding her snatch on the other girl's nipple

Fascinating

Disclaimer: this post and the subject matter and contents thereof - text, media, or otherwise - do not necessarily reflect the views of the 8kun administration.

 No.7412

Huh

Disclaimer: this post and the subject matter and contents thereof - text, media, or otherwise - do not necessarily reflect the views of the 8kun administration.

 No.7416

>>7412

It's hot, lrn 2 not be such a faggot, m8.

Disclaimer: this post and the subject matter and contents thereof - text, media, or otherwise - do not necessarily reflect the views of the 8kun administration.

 No.10558

bump

Disclaimer: this post and the subject matter and contents thereof - text, media, or otherwise - do not necessarily reflect the views of the 8kun administration.

 No.10559

bump

Disclaimer: this post and the subject matter and contents thereof - text, media, or otherwise - do not necessarily reflect the views of the 8kun administration.

 No.10643

File: 1459576539298.jpg (193.74 KB, 1200x800, 3:2, 1453949858808.jpg)

Disclaimer: this post and the subject matter and contents thereof - text, media, or otherwise - do not necessarily reflect the views of the 8kun administration.

 No.10644

File: 1459576615450.jpg (894.66 KB, 4000x2667, 4000:2667, dkEH8DV - Imgur.jpg)

I should get around to changing my filenames

Disclaimer: this post and the subject matter and contents thereof - text, media, or otherwise - do not necessarily reflect the views of the 8kun administration.

 No.10645

File: 1459576651817.jpg (74.68 KB, 1024x683, 1024:683, sqfc8wb.jpg)

Disclaimer: this post and the subject matter and contents thereof - text, media, or otherwise - do not necessarily reflect the views of the 8kun administration.

 No.10646

File: 1459576971432.jpg (191.92 KB, 1280x853, 1280:853, Zl50Gzx.jpg)

Disclaimer: this post and the subject matter and contents thereof - text, media, or otherwise - do not necessarily reflect the views of the 8kun administration.

 No.10934

such a nice bread

thx anons

Disclaimer: this post and the subject matter and contents thereof - text, media, or otherwise - do not necessarily reflect the views of the 8kun administration.

 No.11251

File: 1463509154350-0.jpg (77.64 KB, 600x800, 3:4, 000zxsbq4.jpg)

File: 1463509154351-1.jpg (158.87 KB, 1066x1600, 533:800, 10.jpg)

File: 1463509154351-2.jpg (104.32 KB, 800x500, 8:5, 0019zrcp.jpg)

File: 1463509154351-3.jpg (321.89 KB, 1224x1752, 51:73, 77.jpg)

File: 1463509154351-4.jpg (34.33 KB, 750x750, 1:1, 33434036.jpg)

This thread deserve more pics.

Disclaimer: this post and the subject matter and contents thereof - text, media, or otherwise - do not necessarily reflect the views of the 8kun administration.

 No.11264

>>1170

Because you're not gay.

10/06/14

);

Disclaimer: this post and the subject matter and contents thereof - text, media, or otherwise - do not necessarily reflect the views of the 8kun administration.

 No.12045

File: 1466339048660-0.gif (986.28 KB, 293x576, 293:576, 6.gif)

File: 1466339048661-1.jpg (175.76 KB, 1200x800, 3:2, 175kb.jpg)

File: 1466339048661-2.jpg (345.66 KB, 2000x1500, 4:3, ac.jpg)

Disclaimer: this post and the subject matter and contents thereof - text, media, or otherwise - do not necessarily reflect the views of the 8kun administration.

 No.12048

>>12045

Source to middle one?

Disclaimer: this post and the subject matter and contents thereof - text, media, or otherwise - do not necessarily reflect the views of the 8kun administration.

 No.12050

File: 1466358892673.jpg (175.26 KB, 1200x800, 3:2, 02.jpg)

Disclaimer: this post and the subject matter and contents thereof - text, media, or otherwise - do not necessarily reflect the views of the 8kun administration.

 No.12089

File: 1466781520792.webm (620.52 KB, 720x720, 1:1, 2Jg.webm)

Disclaimer: this post and the subject matter and contents thereof - text, media, or otherwise - do not necessarily reflect the views of the 8kun administration.

 No.12736

>>1170

>don't know why its hot, but it is

>Two women are better than one.

>Men like to see women getting off.

>Two women are getting themselves off.

It's like taking what's hot and making it exponentially hotter.

Disclaimer: this post and the subject matter and contents thereof - text, media, or otherwise - do not necessarily reflect the views of the 8kun administration.

 No.12740

>>12736

Also,

>straight men don't like other men

>straight men don't like dicks

Not having any of that in your porn leaves you with all girl situations. From a logical point of view it's more than understandable. What I don't get is why lesbian porn is not the norm.

Disclaimer: this post and the subject matter and contents thereof - text, media, or otherwise - do not necessarily reflect the views of the 8kun administration.

 No.16138

File: 4ebea38b782d990⋯.jpg (59.49 KB, 500x622, 250:311, 3VE0neW.jpg)

Disclaimer: this post and the subject matter and contents thereof - text, media, or otherwise - do not necessarily reflect the views of the 8kun administration.

 No.16192

File: dd3a93e6ec4f724⋯.webm (1.98 MB, 1920x1080, 16:9, EDB.webm)

Little Caprice and Anjelica Ebbi

Disclaimer: this post and the subject matter and contents thereof - text, media, or otherwise - do not necessarily reflect the views of the 8kun administration.

 No.16230

File: 818aa2d4711774a⋯.jpg (248.79 KB, 1600x1065, 320:213, (17).jpg)

File: 0e2232e062f9b30⋯.jpg (357.06 KB, 1600x1065, 320:213, (34).jpg)

File: 644b1eb290064d2⋯.jpg (241.03 KB, 1065x1600, 213:320, (38).jpg)

Disclaimer: this post and the subject matter and contents thereof - text, media, or otherwise - do not necessarily reflect the views of the 8kun administration.

 No.16259

>>12740

The main point of male on female porn is for the other guy to be there as a blank template for you to insert yourself into with your imagination. Which is why in most male on female porn the guy doesn't say anything and the girl is the one really enforcing her personality.

The goal is to let you imagine what its like to fuck that girl while you masturbate. Obviously in situations where the man is much more expressed that type of porn is probably more so for female self insert fantasies.

But if you just enjoy beautiful women then obviously you're going to gravitate towards lesbian porn.

Disclaimer: this post and the subject matter and contents thereof - text, media, or otherwise - do not necessarily reflect the views of the 8kun administration.

 No.16382

File: ed951e87483e42d⋯.jpg (187.78 KB, 2048x1365, 2048:1365, Be31cYA.jpg)

Milena D lezzing out with Emily Bloom

Disclaimer: this post and the subject matter and contents thereof - text, media, or otherwise - do not necessarily reflect the views of the 8kun administration.

 No.16417

File: 4ea250051cf0f5f⋯.jpg (848.83 KB, 5616x3744, 3:2, bZpGRwt.jpg)

Disclaimer: this post and the subject matter and contents thereof - text, media, or otherwise - do not necessarily reflect the views of the 8kun administration.

 No.16452

File: 44c2993bbe747c9⋯.jpg (1.96 MB, 6000x4505, 1200:901, melisa-nymphs-04.jpg)

File: fbd1fd98948ec8d⋯.jpg (443.57 KB, 2560x1440, 16:9, Melisa_sun-bathing-in-the-….jpg)

File: 8a667c4fe240f09⋯.jpg (1.97 MB, 6000x4461, 2000:1487, melisa_1095.jpg)

Disclaimer: this post and the subject matter and contents thereof - text, media, or otherwise - do not necessarily reflect the views of the 8kun administration.

 No.19579

File: 9895acd8a3acf2f⋯.jpg (435.56 KB, 600x801, 200:267, 1419603375870.jpg)

File: 2ffcee10612b721⋯.png (677.21 KB, 775x800, 31:32, 1445305895042.png)

File: 985809c57e4dd38⋯.jpg (819.44 KB, 1280x1761, 1280:1761, 1412623624430-0.jpg)

File: 5944b7215cd3218⋯.jpg (821.46 KB, 2560x1920, 4:3, 938070386.jpg)

File: 39b46b953efa2d7⋯.jpg (1.35 MB, 2666x4000, 1333:2000, 1388093830501.jpg)

Disclaimer: this post and the subject matter and contents thereof - text, media, or otherwise - do not necessarily reflect the views of the 8kun administration.

 No.19580

File: 3ecbaf8f869d436⋯.jpg (371.27 KB, 700x885, 140:177, 1427267166819-0.jpg)

File: 30b37bccb2caf46⋯.jpg (340.53 KB, 650x975, 2:3, 1427267166819-1.jpg)

File: 58da869508d3d1e⋯.jpg (397.23 KB, 1100x733, 1100:733, 1427267166819-2.jpg)

File: c1d13c8e371d128⋯.jpg (513.25 KB, 1200x800, 3:2, 1427267166819-3.jpg)

File: 4653095fa72e2fb⋯.jpg (388.09 KB, 700x878, 350:439, 1427267166819-4.jpg)

Disclaimer: this post and the subject matter and contents thereof - text, media, or otherwise - do not necessarily reflect the views of the 8kun administration.

 No.19581

File: 74a280564d21538⋯.jpg (646.82 KB, 1223x1631, 1223:1631, 1461720697432-2.jpg)

File: a518664988c3517⋯.jpg (357.49 KB, 2000x1330, 200:133, 102095_20b.jpg)

File: f666d48d9fa38a1⋯.jpg (346.28 KB, 1590x1057, 1590:1057, 1449509580470.jpg)

File: 151bcb5ca86f8d0⋯.jpg (297.21 KB, 2048x1536, 4:3, 410066924.jpg)

File: 330e95eb698b191⋯.jpg (293.13 KB, 1800x1200, 3:2, 1412621677261-1.jpg)

Disclaimer: this post and the subject matter and contents thereof - text, media, or otherwise - do not necessarily reflect the views of the 8kun administration.

 No.19582

File: 3f5ce11e1298da4⋯.jpg (166.58 KB, 1280x800, 8:5, 1443967297780-0.jpg)

File: e4b257e826c5e0e⋯.jpg (155.11 KB, 1250x850, 25:17, 1470511026890-1.jpg)

File: 6473d7cf5cd15db⋯.jpg (177.25 KB, 637x970, 637:970, 1441058657229-2.jpg)

File: 8408f2111c273b0⋯.jpg (206.01 KB, 747x550, 747:550, 1434342151104-0.jpg)

File: f6cb4bf7d7278da⋯.jpg (249.94 KB, 1920x1280, 3:2, amateur-dump.blogspot.com-….jpg)

Disclaimer: this post and the subject matter and contents thereof - text, media, or otherwise - do not necessarily reflect the views of the 8kun administration.

 No.19583

File: ab3224fde7cab91⋯.jpg (143.83 KB, 913x960, 913:960, 1448473542359.jpg)

File: 5c795f91a7f7d4e⋯.jpg (148.57 KB, 500x685, 100:137, 1435604483305-3.jpg)

File: d4f80dfccca4351⋯.jpg (152.27 KB, 450x600, 3:4, 1410207202845.jpg)

File: cc190157bd60141⋯.jpg (170.08 KB, 479x700, 479:700, 1453321572117-2.jpg)

File: 79e85ff38589590⋯.jpg (114.23 KB, 1100x930, 110:93, 1448052700243.jpg)

Disclaimer: this post and the subject matter and contents thereof - text, media, or otherwise - do not necessarily reflect the views of the 8kun administration.

 No.19584

File: 90a01431827e7f9⋯.jpg (139.1 KB, 1200x800, 3:2, 1468356002714-0.jpg)

File: f786111fd8f7f24⋯.jpg (130.16 KB, 500x486, 250:243, 1435604483305-1.jpg)

File: 44ea0212a496263⋯.jpg (292.77 KB, 891x683, 891:683, 1426348291543.jpg)

File: ea5d2148d5a27e6⋯.jpg (122.53 KB, 600x846, 100:141, 1387565876_vas-34.jpg)

File: 77cd807f30a7107⋯.jpg (99.22 KB, 720x900, 4:5, 1424144949129-0.jpg)

Disclaimer: this post and the subject matter and contents thereof - text, media, or otherwise - do not necessarily reflect the views of the 8kun administration.

 No.19585

File: f6b96a40ab69a05⋯.jpg (100.23 KB, 500x750, 2:3, 1541563579.jpg)

File: e9a7c3f705fc5b8⋯.jpg (94.9 KB, 848x1024, 53:64, 1870972630.jpg)

File: 84226c075a2433d⋯.jpg (90.37 KB, 725x526, 725:526, img (17).jpg)

File: a4606ae65658b58⋯.jpg (83.28 KB, 1024x682, 512:341, 1237519562124.jpg)

File: 07fb13aa7494415⋯.jpg (56.55 KB, 540x694, 270:347, 1402262609903.jpg)

Disclaimer: this post and the subject matter and contents thereof - text, media, or otherwise - do not necessarily reflect the views of the 8kun administration.

 No.19586

File: f2d348ad2a4d682⋯.jpg (47.92 KB, 480x640, 3:4, 1427399019168-1.jpg)

File: 18eef9eaf1f0afe⋯.jpg (47.37 KB, 487x485, 487:485, 5939.jpg)

File: 8cbd10ca8b6c47b⋯.jpg (45.37 KB, 478x700, 239:350, 1435604483305-2.jpg)

File: 6ea6c2e4f426f8d⋯.jpg (76.28 KB, 616x803, 56:73, 1469152570375.jpg)

File: b7bd0324d21f718⋯.jpg (85.65 KB, 500x691, 500:691, 1411259521074.jpg)

Disclaimer: this post and the subject matter and contents thereof - text, media, or otherwise - do not necessarily reflect the views of the 8kun administration.

 No.19587

File: 5fb664025d0f058⋯.jpg (57.92 KB, 500x750, 2:3, 1425564036454-1.jpg)

File: 347875b13515004⋯.jpg (40.12 KB, 467x350, 467:350, eecb9d6dbce320052763122154….jpg)

File: 9391a25429e1b11⋯.jpg (35.67 KB, 600x407, 600:407, 1235793586230.jpg)

File: 94401acb1103eb4⋯.jpg (29.92 KB, 399x480, 133:160, 1469213899944.jpg)

File: ae5adb210b9ea55⋯.jpg (28.37 KB, 407x556, 407:556, JBGwgxm7ndyb0.jpg)

Disclaimer: this post and the subject matter and contents thereof - text, media, or otherwise - do not necessarily reflect the views of the 8kun administration.

 No.19588

File: 212a4078984a26f⋯.jpg (275.52 KB, 1280x850, 128:85, five.jpg)

File: 6a460f5e6062787⋯.jpg (182.32 KB, 980x800, 49:40, three.jpg)

File: 0c6709392224d1b⋯.jpg (188.69 KB, 1200x797, 1200:797, six.jpg)

File: 3a6c0b899b16017⋯.jpg (36.56 KB, 500x299, 500:299, 1435274044141.jpg)

File: 0ca0a708331987d⋯.jpg (35.82 KB, 510x324, 85:54, 1441093192509-1.jpg)

Disclaimer: this post and the subject matter and contents thereof - text, media, or otherwise - do not necessarily reflect the views of the 8kun administration.

 No.19589

File: cdd06f3a41f895e⋯.jpg (138.36 KB, 1221x725, 1221:725, 1435625984777.jpg)

File: 6804506f925b10e⋯.jpg (135.84 KB, 1024x682, 512:341, 1435028789658.jpg)

File: f3fab97b6de7105⋯.jpg (470.49 KB, 820x1170, 82:117, GfR9ISa - Imgur.jpg)

File: 06ba219701f82ee⋯.jpg (124.94 KB, 800x533, 800:533, 1470513270267-2.jpg)

File: 1187de4f1ea9dad⋯.jpg (351.94 KB, 2491x1663, 2491:1663, 1454991403214.jpg)

Disclaimer: this post and the subject matter and contents thereof - text, media, or otherwise - do not necessarily reflect the views of the 8kun administration.

 No.19590

File: 368b2196aefa28b⋯.jpg (55.34 KB, 700x525, 4:3, aee5428606634e1d0b4273ded3….jpg)

File: 8ce8ab9ea771a90⋯.jpg (80.35 KB, 500x707, 500:707, tumblr_o5jamjGx5z1s87941o1….jpg)

File: 9723d5ccc50d909⋯.jpg (218.41 KB, 1306x1333, 1306:1333, 1467428658107.jpg)

File: 9a1f3b17f408b21⋯.jpg (343.67 KB, 900x575, 36:23, 1413230742359-2.jpg)

File: 48555424b16655e⋯.jpg (50.82 KB, 360x480, 3:4, 1461977348955-0.jpg)

Disclaimer: this post and the subject matter and contents thereof - text, media, or otherwise - do not necessarily reflect the views of the 8kun administration.

 No.20119

File: 8d2118314221237⋯.gif (3.63 MB, 320x240, 4:3, pink is my favorite colour.gif)

File: c74cb0aef65d585⋯.jpg (40.74 KB, 599x728, 599:728, 159 - 1390426579448jpg.jpg)

File: 29d1f50173e557e⋯.jpg (63.87 KB, 600x800, 3:4, 1266107499932.jpg)

File: 24ada9101eef56b⋯.jpg (97.39 KB, 1600x1200, 4:3, 9jrBF.jpg)

File: ea8f6486790d0dd⋯.jpg (98.82 KB, 515x515, 1:1, 1438553811606.jpg)

Disclaimer: this post and the subject matter and contents thereof - text, media, or otherwise - do not necessarily reflect the views of the 8kun administration.

 No.20120

File: 141ba15f0c19079⋯.gif (3.54 MB, 320x135, 64:27, Natasha.gif)

File: 776eda07451f3ba⋯.jpg (119.22 KB, 770x1080, 77:108, 1470512463264-3.jpg)

File: ef58eb40acb45d9⋯.jpg (124.56 KB, 960x624, 20:13, 1461442828553-2.jpg)

File: 44c33a165dc0b6b⋯.jpg (127.12 KB, 1024x768, 4:3, 1441475826021-1.jpg)

File: fa7d1d632b873f3⋯.jpg (130.43 KB, 460x365, 92:73, 1457902940278.jpg)

Disclaimer: this post and the subject matter and contents thereof - text, media, or otherwise - do not necessarily reflect the views of the 8kun administration.

 No.20121

File: 83505d2a4f16132⋯.gif (3.51 MB, 320x240, 4:3, Mother Complex Lesbian.gif)

File: 28baae3b97d7b59⋯.jpg (167.6 KB, 1024x768, 4:3, 0007067072.jpg)

File: e7bb799efb1adca⋯.jpg (158.64 KB, 640x640, 1:1, 1416550716921-0.jpg)

File: 4902087dc58a751⋯.jpg (152.77 KB, 720x1080, 2:3, 1470513233694-1.jpg)

File: f28a85335d0eab5⋯.jpg (133.23 KB, 640x640, 1:1, 1461943162123-2.jpg)

Disclaimer: this post and the subject matter and contents thereof - text, media, or otherwise - do not necessarily reflect the views of the 8kun administration.

 No.20122

File: fb7e034f9640340⋯.gif (3.05 MB, 224x168, 4:3, 1445291755811.gif)

File: 4bf3dd0bffd4822⋯.jpg (413.93 KB, 960x1280, 3:4, amateur-dump.blogspot.com-….jpg)

File: f4fd65932077633⋯.jpg (346.4 KB, 960x1280, 3:4, amateur-dump.blogspot.com-….jpg)

File: d103ca913579370⋯.jpg (227.86 KB, 1280x960, 4:3, 1424147050609-2.jpg)

File: e2c8e76abf3af15⋯.jpg (208.96 KB, 1024x768, 4:3, 1245201368434.jpg)

Disclaimer: this post and the subject matter and contents thereof - text, media, or otherwise - do not necessarily reflect the views of the 8kun administration.

 No.20123

File: 939f627bede33ef⋯.gif (2.8 MB, 291x217, 291:217, 1404941815236.gif)

File: 2ddf76a6ce69e32⋯.jpg (336.67 KB, 1200x800, 3:2, 1440898686788.jpg)

File: c8fd56ed95e99ad⋯.jpg (149.29 KB, 1024x768, 4:3, 1275187473664.jpg)

File: 9954e7edcbab423⋯.jpg (115.05 KB, 798x1066, 399:533, 1234116248644.jpg)

File: 15f32981963880b⋯.jpg (62.27 KB, 603x586, 603:586, img (100).jpg)

Disclaimer: this post and the subject matter and contents thereof - text, media, or otherwise - do not necessarily reflect the views of the 8kun administration.

 No.20124

File: fce24beeae9b90a⋯.gif (1.99 MB, 363x349, 363:349, 1439164244235.gif)

File: 9f9041f459c0e95⋯.jpg (40.58 KB, 450x555, 30:37, 1245204351092.jpg)

File: 4c6c74076a7dd73⋯.jpg (52.53 KB, 453x604, 3:4, 1263852152246.jpg)

File: 40302ab7172e58c⋯.jpg (58.89 KB, 960x960, 1:1, 1468252880361.jpg)

File: 577fa024f79cae4⋯.jpg (192.32 KB, 1000x1224, 125:153, ba5f2ab69ff60ae948bf0c75e7….jpg)

Disclaimer: this post and the subject matter and contents thereof - text, media, or otherwise - do not necessarily reflect the views of the 8kun administration.

 No.20125

File: 280ff7bad25de63⋯.gif (1.99 MB, 254x356, 127:178, 1388428936522.gif)

File: ea7a8f4e202b3c4⋯.jpg (339.07 KB, 960x1280, 3:4, amateur-dump.blogspot.com-….jpg)

File: d9f3842176fd56f⋯.gif (1.95 MB, 500x278, 250:139, 1423284166440.gif)

File: 36cdd5f2c6f0dd4⋯.gif (1.53 MB, 200x162, 100:81, 1439225540950.gif)

File: 7414976aee369fc⋯.jpg (607.94 KB, 3504x2336, 3:2, 141254046648.jpg)

Disclaimer: this post and the subject matter and contents thereof - text, media, or otherwise - do not necessarily reflect the views of the 8kun administration.

 No.20412

File: 28783b5cd0186fc⋯.jpeg (147.84 KB, 1516x1024, 379:256, 1453224170227-1.jpeg)

File: 09627586c3800bf⋯.jpg (595.53 KB, 1028x1600, 257:400, 1441889142411-3.jpg)

File: 9616fa0d8cdb50c⋯.gif (667.09 KB, 200x150, 4:3, 1435382342955.gif)

File: 12fdb637e9a6519⋯.gif (737.12 KB, 500x424, 125:106, 1432757234409.gif)

File: 59d9e2e1bbd1ead⋯.gif (950.4 KB, 500x500, 1:1, four.gif)

Disclaimer: this post and the subject matter and contents thereof - text, media, or otherwise - do not necessarily reflect the views of the 8kun administration.

 No.20413

File: e55daf5c7e0c955⋯.gif (Spoiler Image, 1.91 MB, 335x340, 67:68, 1468980098867.gif)

File: 07ffe50e9e8b5fd⋯.jpg (Spoiler Image, 342.35 KB, 1920x1200, 8:5, 1397858543763.jpg)

File: ab623b3878a6487⋯.gif (Spoiler Image, 1.79 MB, 400x200, 2:1, 1447520835890.gif)

File: c713ce4e806e1e9⋯.jpg (Spoiler Image, 75.3 KB, 500x477, 500:477, 1436692402090.jpg)

File: dae0fe403cdd88d⋯.gif (Spoiler Image, 3.73 MB, 480x360, 4:3, 1442983562859-0.gif)

Disclaimer: this post and the subject matter and contents thereof - text, media, or otherwise - do not necessarily reflect the views of the 8kun administration.

 No.20414

File: 0a44fcb9b73df90⋯.jpg (147.18 KB, 498x750, 83:125, 1438535654629.jpg)

File: 2d83def6b1b3868⋯.jpg (360.42 KB, 464x750, 232:375, 1445291542605-2.jpg)

Disclaimer: this post and the subject matter and contents thereof - text, media, or otherwise - do not necessarily reflect the views of the 8kun administration.

 No.22771

Good thread.

>>20125

5th one good.

>>20413

First two seem to conform to rules.

Disclaimer: this post and the subject matter and contents thereof - text, media, or otherwise - do not necessarily reflect the views of the 8kun administration.

 No.22772

File: d555ba83b8202b5⋯.jpg (86.59 KB, 500x750, 2:3, gg kissing tumblr_oedxi….jpg)

File: ddf23e11a247600⋯.jpg (35.78 KB, 540x352, 135:88, gg pair tumblr_o6dollLD….jpg)

File: 935b1685d058e86⋯.jpg (72.04 KB, 537x810, 179:270, gg pair tumblr_o6dollLD….jpg)

File: 398f4b9e14a797a⋯.jpg (281 KB, 1600x1038, 800:519, gg sex 1476949150853.jpg)

File: f48524e210a9327⋯.jpg (2.98 MB, 2832x2128, 177:133, gg sex 1477166343923.jpg)

Disclaimer: this post and the subject matter and contents thereof - text, media, or otherwise - do not necessarily reflect the views of the 8kun administration.

 No.22781

File: 0855f197b6f4910⋯.webm (1.9 MB, 560x996, 140:249, 0855f197b6f49108d1339db76….webm)

Disclaimer: this post and the subject matter and contents thereof - text, media, or otherwise - do not necessarily reflect the views of the 8kun administration.

 No.22789

File: fb71307eda290f0⋯.jpg (191.29 KB, 1600x2230, 160:223, 10274232143_b7131b815a_o.jpg)

File: 1ff77146dc7a83e⋯.jpg (61.27 KB, 1048x718, 524:359, 14745752194_fb1d35decd_o.jpg)

File: 107ad26ba029a50⋯.jpg (38.31 KB, 1024x686, 512:343, 2017-10-19_08-09-02.jpg)

File: aab7d790ebe4f46⋯.jpg (425.81 KB, 2106x3000, 351:500, 2017-09-28_11-25-34.jpg)

File: c266ee68d37fe9e⋯.jpg (685.16 KB, 4000x2661, 4000:2661, 2018-06-04_09-51-05.jpg)

Disclaimer: this post and the subject matter and contents thereof - text, media, or otherwise - do not necessarily reflect the views of the 8kun administration.

 No.22791

File: 1a01a8b7492f1a8⋯.jpg (47.5 KB, 853x853, 1:1, 2018-06-05_08-26-35.jpg)

File: 530b9feeb3c165b⋯.jpg (183.31 KB, 2000x3000, 2:3, 2018-06-07_07-47-13.jpg)

File: b6639b8a42793d2⋯.jpg (40.39 KB, 500x750, 2:3, 62f84796-643a-4937-a5d9-32….jpg)

File: fb36dcafe31e7cf⋯.jpg (35.14 KB, 500x738, 250:369, tumblr_ootiztGjYp1u4m268o1….jpg)

File: 9315d59bc0971c1⋯.jpg (156.86 KB, 1080x1235, 216:247, PZEuCEF.jpg)

Disclaimer: this post and the subject matter and contents thereof - text, media, or otherwise - do not necessarily reflect the views of the 8kun administration.

 No.22792

File: 388bd2bff480551⋯.jpg (55.33 KB, 899x600, 899:600, ee46d0b3-8a50-4f8d-b796-b0….jpg)

File: 773a285a76fc404⋯.jpg (71.71 KB, 800x1200, 2:3, 8c6a826a-ec00-4473-b531-15….jpg)

File: b0beedc6c4cc619⋯.jpg (290.87 KB, 4000x2666, 2000:1333, 2018-06-05_10-14-41.jpg)

File: 736fa33d0ae3fe5⋯.jpg (108.92 KB, 541x812, 541:812, 0618c14e-d04f-4419-8895-5e….jpg)

File: 6ebe33bfaf58d7c⋯.jpg (60.96 KB, 389x585, 389:585, 4e6c4ed8-9125-44ef-b6f3-40….jpg)

Disclaimer: this post and the subject matter and contents thereof - text, media, or otherwise - do not necessarily reflect the views of the 8kun administration.

 No.22802

File: b78152d6bb5d686⋯.jpg (471.97 KB, 5184x3456, 3:2, 19762.jpg)

File: 52e56a794c8e478⋯.jpg (117.97 KB, 2560x1600, 8:5, download_img.jpg)

File: 668b768cc615e21⋯.jpg (46.92 KB, 811x1231, 811:1231, 88d1e6b.jpg)

File: e8ce32d5a77d700⋯.jpg (978.16 KB, 5616x3744, 3:2, fd9e55f.jpg)

Disclaimer: this post and the subject matter and contents thereof - text, media, or otherwise - do not necessarily reflect the views of the 8kun administration.

 No.22807

File: 9c1ca91e7b5e801⋯.jpg (61.27 KB, 1048x718, 524:359, 14745752194_fb1d35decd_o.jpg)

File: 10cb49de10f2c43⋯.jpg (105.55 KB, 2048x1371, 2048:1371, 32215335221_de8988ebe8_k.jpg)

File: 8ed7a8e896464ef⋯.jpg (76.39 KB, 875x1313, 875:1313, 36694680840_f290ae6c9a_o.jpg)

File: d4ccce7e7053a0e⋯.jpg (29.31 KB, 690x1016, 345:508, 40044790891_395a348629_o.jpg)

File: 67a2192b4e1d5c2⋯.jpg (109.7 KB, 1500x1000, 3:2, 38027339042_c14c62fd94_o.jpg)

Disclaimer: this post and the subject matter and contents thereof - text, media, or otherwise - do not necessarily reflect the views of the 8kun administration.

 No.22843

File: 77543161a08bca2⋯.jpg (18.11 KB, 500x423, 500:423, 02a9fb1a-b091-494f-8130-00….jpg)

File: 5e327c18ccc6e12⋯.jpg (110.91 KB, 1280x1024, 5:4, 0f9925ef-97f6-473d-b98f-b8….jpg)

File: b7903d58bcf6845⋯.jpg (18.11 KB, 500x376, 125:94, 11e52db4-98b2-493b-ae30-90….jpg)

File: 7b5554a3797ea0c⋯.jpg (88.2 KB, 960x1440, 2:3, 13b32574-a81f-41fd-891f-3d….jpg)

File: 7f84199d8276ede⋯.jpg (10.6 KB, 268x275, 268:275, 3a11798e-4e27-431f-8366-9b….jpg)

Disclaimer: this post and the subject matter and contents thereof - text, media, or otherwise - do not necessarily reflect the views of the 8kun administration.

 No.22844

File: 590d36fa99db335⋯.jpg (32.55 KB, 500x725, 20:29, a3488b18-9070-4584-9674-15….jpg)

File: 3048483dae0f77d⋯.jpg (28.31 KB, 1174x843, 1174:843, 891cc67e-9764-4d56-a1bb-ed….jpg)

File: 86ebb99e80d0318⋯.jpg (19.23 KB, 500x596, 125:149, c4b31c4b-75ac-498e-9bc8-0c….jpg)

File: f1af339a28dc5d1⋯.jpg (24.85 KB, 500x747, 500:747, 9dcd0dfa-1467-4539-8e2d-ee….jpg)

File: 1e762aff53ef521⋯.jpg (27.95 KB, 750x500, 3:2, ff7a60be-4620-4f48-8c3c-dd….jpg)

Disclaimer: this post and the subject matter and contents thereof - text, media, or otherwise - do not necessarily reflect the views of the 8kun administration.

 No.22850

File: 8f2b9e6d1eb4196⋯.jpg (141.02 KB, 1080x1272, 45:53, 6a8f5968-dbfe-4b38-a256-db….jpg)

File: 8266e6cd3485177⋯.jpg (632.93 KB, 1280x1920, 2:3, 0dbf6f44-2828-4434-8adf-61….jpg)

File: 2970997767d2bb5⋯.jpg (450.7 KB, 1280x1896, 160:237, 83f5f661-bd50-41a3-a9ec-37….jpg)

Disclaimer: this post and the subject matter and contents thereof - text, media, or otherwise - do not necessarily reflect the views of the 8kun administration.

 No.22938

File: 0b25a6eb815fc80⋯.webm (2.42 MB, 852x480, 71:40, tendre-pervers--2liveoutl….webm)

Disclaimer: this post and the subject matter and contents thereof - text, media, or otherwise - do not necessarily reflect the views of the 8kun administration.

 No.23134

File: 2e8fe9591102952⋯.jpg (97.21 KB, 800x1200, 2:3, 001.jpg)

File: ef9de2c36e9d913⋯.jpg (95.45 KB, 800x1200, 2:3, 002.jpg)

File: 7058e6548a858c0⋯.jpg (80.27 KB, 800x1200, 2:3, 003.jpg)

File: 1ba5cea96871997⋯.jpg (81.63 KB, 800x1200, 2:3, 004.jpg)

File: 39a17bccfd12893⋯.jpg (98.57 KB, 800x1200, 2:3, 005.jpg)

Disclaimer: this post and the subject matter and contents thereof - text, media, or otherwise - do not necessarily reflect the views of the 8kun administration.

 No.23136

File: dc471dfaee74739⋯.jpg (48.13 KB, 412x559, 412:559, 00b5c42a-dcbf-47d4-b972-b9….jpg)

File: 50f2627f4d3aa10⋯.jpg (108.92 KB, 541x812, 541:812, 0618c14e-d04f-4419-8895-5e….jpg)

File: d870d17d454b1f2⋯.jpg (632.93 KB, 1280x1920, 2:3, 0dbf6f44-2828-4434-8adf-61….jpg)

File: 157226e4304f569⋯.jpg (473.9 KB, 1280x1919, 1280:1919, 4d191710-83d0-435b-9d93-3c….jpg)

File: b3e20d5b6642da3⋯.jpg (60.96 KB, 389x585, 389:585, 4e6c4ed8-9125-44ef-b6f3-40….jpg)

Disclaimer: this post and the subject matter and contents thereof - text, media, or otherwise - do not necessarily reflect the views of the 8kun administration.

 No.23628

>>20121

sauce on the first gif

Disclaimer: this post and the subject matter and contents thereof - text, media, or otherwise - do not necessarily reflect the views of the 8kun administration.

 No.23692

>>23628

CWM-067

Disclaimer: this post and the subject matter and contents thereof - text, media, or otherwise - do not necessarily reflect the views of the 8kun administration.

 No.24157

>>5905

fucking hot

Disclaimer: this post and the subject matter and contents thereof - text, media, or otherwise - do not necessarily reflect the views of the 8kun administration.

 No.24158

>>10645

names?

Disclaimer: this post and the subject matter and contents thereof - text, media, or otherwise - do not necessarily reflect the views of the 8kun administration.

 No.24160

File: 72134836f52a3bb⋯.jpg (308.37 KB, 1280x1920, 2:3, 65bb9808-fd95-4c73-af19-50….jpg)

File: 220cbbe0fbe96c7⋯.jpg (150.36 KB, 716x875, 716:875, e6e594e8-5370-4301-84be-81….jpg)

File: 084695d00db2d88⋯.jpg (88.2 KB, 960x1440, 2:3, 13b32574-a81f-41fd-891f-3d….jpg)

File: d639a3ef3248470⋯.jpg (18.93 KB, 500x666, 250:333, e7ee401b-8466-40c9-bc5b-35….jpg)

File: 7bac82241d31309⋯.jpg (32.36 KB, 825x550, 3:2, 6943061c-c7a5-4d3a-bf5e-5f….jpg)

Disclaimer: this post and the subject matter and contents thereof - text, media, or otherwise - do not necessarily reflect the views of the 8kun administration.

 No.24164

File: 4da868c3bd494c9⋯.gif (443.45 KB, 160x160, 1:1, a13bd4ef-d794-42c9-8571-1b….gif)

File: 3849604044d9bb3⋯.jpg (51.45 KB, 487x700, 487:700, 838c1b04-33ba-4455-bbe1-19….jpg)

File: afd448cc3f5fcb1⋯.jpg (36.71 KB, 500x298, 250:149, 3bbe0b9f-fa3d-45a1-927a-f6….jpg)

File: 7a710c84579d174⋯.jpg (92.49 KB, 500x749, 500:749, 23dd5699-a8be-4919-a882-47….jpg)

File: 346997c9f234a74⋯.jpg (285.23 KB, 972x1555, 972:1555, 5783393f-94b1-4405-a771-7b….jpg)

Disclaimer: this post and the subject matter and contents thereof - text, media, or otherwise - do not necessarily reflect the views of the 8kun administration.

 No.24165

File: 9b3d9020f6345c4⋯.jpg (94.99 KB, 675x1200, 9:16, 83e16bac-86ea-4ff9-91ab-11….jpg)

File: 42e1932d8185846⋯.jpg (96.09 KB, 500x750, 2:3, db6aea56-582c-4b7e-83c2-fb….jpg)

File: f4251be133436d5⋯.jpg (149.7 KB, 1000x545, 200:109, 2018-09-06_06-23-54.jpg)

File: e93135b73ff79a6⋯.jpg (165.46 KB, 1820x2048, 455:512, 26318998989_5ef393cf77_k.jpg)

File: 12e94819b07695e⋯.jpg (45.15 KB, 1200x800, 3:2, 37415888662_901c70d7fd_o.jpg)

Disclaimer: this post and the subject matter and contents thereof - text, media, or otherwise - do not necessarily reflect the views of the 8kun administration.

 No.24216

File: 3e53ac6690ccd27⋯.jpg (303.66 KB, 1600x1064, 200:133, 1421400386683.jpg)

Disclaimer: this post and the subject matter and contents thereof - text, media, or otherwise - do not necessarily reflect the views of the 8kun administration.

 No.24233

File: 1af29b6b2a78a3a⋯.jpg (108.92 KB, 541x812, 541:812, 0618c14e-d04f-4419-8895-5e….jpg)

File: e0e51f417d4e686⋯.jpg (48.13 KB, 412x559, 412:559, 00b5c42a-dcbf-47d4-b972-b9….jpg)

File: 9443c1e7e2c15ff⋯.jpg (159.39 KB, 1080x1350, 4:5, 0bb3ced2-71e2-4aec-8843-48….jpg)

File: c346b2b88a425a6⋯.jpg (92.49 KB, 500x749, 500:749, 23dd5699-a8be-4919-a882-47….jpg)

File: 8390873c82a8cf9⋯.jpg (285.23 KB, 972x1555, 972:1555, 5783393f-94b1-4405-a771-7b….jpg)

Disclaimer: this post and the subject matter and contents thereof - text, media, or otherwise - do not necessarily reflect the views of the 8kun administration.

 No.24436

File: 04410bf0d4076c7⋯.jpg (74.54 KB, 648x432, 3:2, brandimandy04.jpg)

File: 8055849c2f3f0ae⋯.jpg (67.07 KB, 648x432, 3:2, brandimandy08.jpg)

File: 7e503026f4c2e1d⋯.jpg (51.62 KB, 432x648, 2:3, brandimandy11.jpg)

File: 96f49af34b553d8⋯.jpg (61.33 KB, 432x648, 2:3, brandimandy26.jpg)

File: 7d8e62d8a09c951⋯.jpg (67.71 KB, 648x432, 3:2, brandimandy37.jpg)

Disclaimer: this post and the subject matter and contents thereof - text, media, or otherwise - do not necessarily reflect the views of the 8kun administration.

 No.24438

>>1171

mabye i am misunderstanding SOMETHING ELSE PN 8CHAN. Why would you not think the other pic was hot?

\

Disclaimer: this post and the subject matter and contents thereof - text, media, or otherwise - do not necessarily reflect the views of the 8kun administration.

 No.25088

File: 9ab417de8d8ed2f⋯.jpg (438.71 KB, 1280x1920, 2:3, c5092411-527d-48d9-a032-a0….jpg)

File: a95fb75a6d29dd4⋯.jpg (173.29 KB, 1280x853, 1280:853, fb039ed9-075d-4018-83ea-b6….jpg)

File: 570fe7ac7591564⋯.jpg (168.38 KB, 1280x853, 1280:853, d6b7baec-1c2a-4a50-825e-8b….jpg)

Disclaimer: this post and the subject matter and contents thereof - text, media, or otherwise - do not necessarily reflect the views of the 8kun administration.

 No.25099

Disclaimer: this post and the subject matter and contents thereof - text, media, or otherwise - do not necessarily reflect the views of the 8kun administration.

 No.26103

File: ab59d61d423c910⋯.jpg (341.88 KB, 2000x1333, 2000:1333, 454423.jpg)

File: 3bfa92bdbf5f18e⋯.jpg (3.2 MB, 5760x3840, 3:2, 26906916.jpg)

File: 126f5fea14998a9⋯.jpg (123.56 KB, 683x1024, 683:1024, 29991452.jpg)

File: 972a28c7a0c73e5⋯.jpg (1.14 MB, 3888x2592, 3:2, 59615454.jpg)

File: 6348aaa6a6d0beb⋯.jpg (94.78 KB, 900x600, 3:2, 62512162.jpg)

Disclaimer: this post and the subject matter and contents thereof - text, media, or otherwise - do not necessarily reflect the views of the 8kun administration.

 No.26120

File: 4b5fb3bd946753e⋯.jpg (132.03 KB, 1280x960, 4:3, 8f16e70.jpg)

File: fded88dc8fabd61⋯.jpg (77.23 KB, 521x810, 521:810, e1eb2c93-1b10-4832-91d5-de….jpg)

/

Disclaimer: this post and the subject matter and contents thereof - text, media, or otherwise - do not necessarily reflect the views of the 8kun administration.



[Return][Go to top][Catalog][Nerve Center][Random][Post a Reply]
Delete Post [ ]
[]
[ / / / / / / / / / / / / / ] [ dir / random / cuteboys / cyber / fast / femdom / kind / komica / sapphic / tech ]